Latest Weather Observations for Temora

IDN60801

Issued at 6:32 pm EST Thursday 27 July 2017 (issued every 30 minutes, with the page automatically refreshed every 10 minutes)

About weather observations | Map of weather stations | Latest weather observations for NSW | Other Formats
Station Details ID: 073151 Name: TEMORA AIRPORT Lat: -34.43 Lon: 147.51 Height: 280.5 m
Data from the previous 72 hours. | See also: Recent months at Temora
Date/Time
EST
Temp
°C
App
Temp
°C
Dew
Point
°C
Rel
Hum
%
Delta-T
°C
Wind Press
QNH
hPa
Press
MSL
hPa
Rain since
9am
mm
Dir  Spd
km/h
Gust
km/h
Spd
kts
Gust
kts
27/06:30pm 9.2 5.7 3.4 67 2.5 NNE 11 11 6 6 1021.3 1021.8 0.0
27/06:00pm 10.4 7.6 3.4 62 3.1 NE 7 9 4 5 1021.4 1021.9 0.0
27/05:30pm 11.4 8.7 3.7 59 3.5 NE 7 9 4 5 1021.5 1022.0 0.0
27/05:00pm 12.2 9.1 3.7 56 3.8 NNE 9 11 5 6 1021.1 1021.6 0.0
27/04:30pm 13.3 9.4 3.4 51 4.5 NNE 13 17 7 9 1021.0 1021.5 0.0
27/04:00pm 14.1 10.6 3.3 48 4.9 NNE 11 15 6 8 1021.4 1021.9 0.0
27/03:30pm 14.4 10.1 3.2 47 5.1 N 15 22 8 12 1021.6 1022.1 0.0
27/03:00pm 14.6 11.4 3.1 46 5.2 NE 9 19 5 10 1021.7 1022.2 0.0
27/02:30pm 14.7 11.7 4.1 49 5.0 NNE 9 17 5 9 1022.0 1022.6 0.0
27/02:00pm 14.7 11.3 4.1 49 4.9 NNE 11 20 6 11 1022.3 1022.8 0.0
27/01:30pm 14.3 11.2 3.7 49 4.9 NE 9 15 5 8 1022.6 1023.1 0.0
27/01:00pm 14.0 10.4 3.2 48 4.9 NE 11 19 6 10 1023.6 1024.1 0.0
27/12:30pm 13.7 10.0 4.3 53 4.4 N 13 19 7 10 1024.1 1024.6 0.0
27/12:00pm 13.2 10.6 5.9 61 3.5 N 9 15 5 8 1024.8 1025.3 0.0
27/11:30am 12.4 10.5 6.7 68 2.8 N 6 11 3 6 1025.3 1025.9 0.0
27/11:00am 10.8 8.2 6.2 73 2.2 NNE 9 11 5 6 1025.7 1026.3 0.0
27/10:30am 9.5 6.9 6.0 79 1.6 ENE 9 11 5 6 1025.7 1026.3 0.0
27/10:00am 7.6 4.7 4.9 83 1.2 NE 9 11 5 6 1026.3 1026.8 0.0
27/09:30am 6.6 4.4 5.4 92 0.5 ESE 6 7 3 4 1026.3 1026.8 0.0
27/09:00am 4.1 1.6 4.0 99 0.0 NE 6 7 3 4 1025.9 1026.5 0.0
27/08:30am 2.1 0.4 2.0 99 0.0 CALM 0 4 0 2 1025.5 1026.1 0.0
27/08:00am -1.7 -5.1 -1.8 99 0.0 S 6 7 3 4 1025.6 1026.2 0.0
27/07:30am -2.4 -5.9 -2.5 99 -0.1 S 6 6 3 3 1025.7 1026.3 0.0
27/07:00am -2.4 -5.9 -2.5 99 -0.1 S 6 7 3 4 1025.4 1026.0 0.0
27/06:30am -2.1 -5.5 -2.2 99 -0.1 S 6 7 3 4 1024.9 1025.5 0.0
27/06:00am -2.3 -5.7 -2.4 99 -0.1 S 6 7 3 4 1024.4 1024.9 0.0
27/05:30am -2.2 -4.9 -2.3 99 -0.1 SSW 2 6 1 3 1024.1 1024.6 0.0
27/05:00am -2.1 -4.4 -2.4 98 0.0 CALM 0 7 0 4 1023.8 1024.3 0.0
27/04:30am -1.7 -4.0 -2.0 98 0.0 CALM 0 0 0 0 1024.0 1024.5 0.0
27/04:00am -0.3 -2.3 -0.4 99 0.0 CALM 0 0 0 0 1023.9 1024.4 0.0
27/03:30am -0.5 -2.6 -0.6 99 0.0 CALM 0 0 0 0 1024.3 1024.8 0.0
27/03:00am 0.4 -2.3 0.3 99 0.0 ESE 4 7 2 4 1024.6 1025.1 0.0
27/02:30am -0.4 -2.5 -0.5 99 0.0 CALM 0 0 0 0 1024.8 1025.3 0.0
27/02:00am -0.2 -2.2 -0.3 99 0.0 CALM 0 0 0 0 1024.6 1025.1 0.0
27/01:30am -0.3 -2.4 -0.6 98 0.1 CALM 0 0 0 0 1024.4 1024.9 0.0
27/01:00am 0.3 -1.7 0.0 98 0.1 CALM 0 0 0 0 1024.4 1024.9 0.0
27/12:30am 0.2 -2.2 -0.2 97 0.1 NE 2 6 1 3 1024.4 1024.9 0.0
27/12:00am 0.2 -2.9 -0.1 98 0.1 S 6 6 3 3 1024.3 1024.8 0.0
 
Date/Time
EST
Temp
°C
App
Temp
°C
Dew
Point
°C
Rel
Hum
%
Delta-T
°C
Wind Press
QNH
hPa
Press
MSL
hPa
Rain since
9am
mm
Dir  Spd
km/h
Gust
km/h
Spd
kts
Gust
kts
26/11:30pm -0.2 -3.4 -0.5 98 0.1 S 6 7 3 4 1024.3 1024.8 0.0
26/11:00pm 0.0 -3.4 -0.7 95 0.3 SSW 7 9 4 5 1024.3 1024.8 0.0
26/10:30pm 1.4 -1.6 1.0 97 0.2 S 6 7 3 4 1024.3 1024.8 0.0
26/10:00pm 2.1 0.3 1.4 95 0.3 CALM 0 0 0 0 1024.3 1024.8 0.0
26/09:30pm 2.4 0.6 1.2 92 0.5 CALM 0 0 0 0 1024.3 1024.8 0.0
26/09:00pm 3.6 0.9 2.7 94 0.4 SW 6 6 3 3 1024.1 1024.6 0.0
26/08:30pm 4.3 1.7 3.3 93 0.4 SSW 6 7 3 4 1023.9 1024.4 0.0
26/08:00pm 4.4 1.4 2.3 86 0.9 SW 7 9 4 5 1023.8 1024.3 0.0
26/07:30pm 6.2 3.7 4.0 86 1.0 SW 6 7 3 4 1023.4 1023.9 0.0
26/07:00pm 6.5 3.9 3.1 79 1.4 SW 6 7 3 4 1023.2 1023.7 0.0
26/06:30pm 8.5 6.0 3.9 73 2.0 SW 6 7 3 4 1022.7 1023.2 0.0
26/06:00pm 10.2 7.6 4.1 66 2.7 SSW 7 11 4 6 1022.4 1022.9 0.0
26/05:30pm 11.7 7.6 4.2 60 3.4 WSW 15 20 8 11 1022.1 1022.7 0.0
26/05:00pm 13.1 8.7 4.5 56 4.0 WSW 17 28 9 15 1021.9 1022.5 0.0
26/04:30pm 14.0 9.0 4.6 53 4.4 WSW 20 33 11 18 1021.7 1022.2 0.0
26/04:00pm 14.7 7.6 3.8 48 5.0 WSW 30 43 16 23 1021.4 1021.9 0.0
26/03:30pm 15.7 10.4 5.0 49 5.1 W 22 30 12 16 1020.9 1021.4 0.0
26/03:00pm 14.3 7.6 3.7 49 4.9 WSW 28 35 15 19 1020.8 1021.3 0.0
26/02:30pm 15.4 9.0 5.3 51 4.9 W 28 43 15 23 1020.6 1021.1 0.0
26/02:00pm 13.8 8.1 4.9 55 4.2 WSW 24 37 13 20 1020.5 1021.0 0.0
26/01:30pm 13.9 7.9 5.5 57 4.0 WSW 26 39 14 21 1020.5 1021.0 0.0
26/01:00pm 14.8 9.6 5.6 54 4.4 WSW 22 32 12 17 1020.7 1021.2 0.0
26/12:30pm 15.3 9.0 5.5 52 4.7 W 28 43 15 23 1020.9 1021.4 0.0
26/12:00pm 14.0 8.3 6.8 62 3.5 WSW 26 35 14 19 1021.2 1021.7 0.0
26/11:30am 13.7 8.1 7.2 65 3.2 WSW 26 33 14 18 1021.5 1022.0 0.0
26/11:00am 12.6 6.8 6.4 66 3.0 WSW 26 39 14 21 1021.6 1022.1 0.0
26/10:30am 13.0 8.3 7.7 70 2.6 W 22 33 12 18 1021.7 1022.2 0.0
26/10:00am 12.3 7.7 8.0 75 2.1 W 22 30 12 16 1021.7 1022.2 0.0
26/09:30am 11.7 7.6 8.7 82 1.5 W 20 30 11 16 1021.4 1021.9 0.0
26/09:00am 10.9 6.7 8.1 83 1.4 WSW 20 32 11 17 1021.3 1021.8 0.0
26/08:30am 9.6 6.5 7.4 86 1.1 W 13 19 7 10 1021.2 1021.7 0.0
26/08:00am 8.4 5.9 6.4 87 0.9 W 9 15 5 8 1020.8 1021.3 0.0
26/07:30am 7.0 3.8 5.0 87 0.9 W 11 15 6 8 1020.4 1020.9 0.0
26/07:00am 7.5 4.0 5.3 86 1.0 W 13 15 7 8 1020.0 1020.5 0.0
26/06:30am 7.4 3.8 5.2 86 1.0 W 13 15 7 8 1019.4 1019.9 0.0
26/06:00am 7.9 4.4 5.5 85 1.1 W 13 15 7 8 1019.0 1019.5 0.0
26/05:30am 8.0 4.8 5.1 82 1.3 WNW 11 15 6 8 1018.6 1019.0 0.0
26/05:00am 8.5 5.0 5.3 80 1.5 W 13 15 7 8 1018.2 1018.7 0.0
26/04:30am 9.6 6.9 5.6 76 1.9 W 9 13 5 7 1017.7 1018.2 0.0
26/04:00am 10.7 7.7 6.1 73 2.2 WNW 11 15 6 8 1017.7 1018.2 0.0
26/03:30am 11.0 7.6 6.0 71 2.4 W 13 17 7 9 1017.7 1018.2 0.0
26/03:00am 12.0 7.9 6.1 67 2.8 WNW 17 22 9 12 1017.9 1018.4 0.0
26/02:30am 13.0 8.6 6.4 64 3.2 WNW 19 26 10 14 1017.8 1018.3 0.0
26/02:00am 13.4 9.3 6.3 62 3.4 WNW 17 22 9 12 1017.6 1018.1 0.0
26/01:30am 13.8 9.2 6.4 61 3.6 W 20 30 11 16 1018.6 1019.0 0.0
26/01:00am 14.4 8.9 5.7 56 4.2 WNW 24 33 13 18 1018.2 1018.7 0.0
26/12:30am 13.5 9.2 5.4 58 3.9 WNW 17 24 9 13 1018.3 1018.8 0.0
26/12:00am 14.2 8.6 5.3 55 4.2 NW 24 37 13 20 1017.9 1018.4 0.0
 
Date/Time
EST
Temp
°C
App
Temp
°C
Dew
Point
°C
Rel
Hum
%
Delta-T
°C
Wind Press
QNH
hPa
Press
MSL
hPa
Rain since
9am
mm
Dir  Spd
km/h
Gust
km/h
Spd
kts
Gust
kts
25/11:30pm 12.9 8.1 5.8 62 3.4 NNW 20 26 11 14 1018.0 1018.5 0.0
25/11:00pm 12.8 10.5 5.7 62 3.4 NW 7 11 4 6 1018.0 1018.5 0.0
25/10:30pm 14.3 9.5 4.6 52 4.6 WNW 19 30 10 16 1019.0 1019.5 0.0
25/10:00pm 12.5 8.5 5.0 60 3.5 NW 15 22 8 12 1019.3 1019.8 0.0
25/09:30pm 13.0 9.1 5.2 59 3.7 NNW 15 28 8 15 1018.6 1019.0 0.0
25/09:00pm 11.7 8.9 5.3 65 3.0 N 9 13 5 7 1018.3 1018.8 0.0
25/08:30pm 11.4 8.6 5.3 66 2.8 N 9 11 5 6 1018.4 1018.9 0.0
25/08:00pm 11.0 7.7 4.5 64 3.0 NNE 11 13 6 7 1018.3 1018.8 0.0
25/07:30pm 11.4 7.7 4.6 63 3.1 NNE 13 13 7 7 1018.7 1019.1 0.0
25/07:00pm 11.4 7.7 4.4 62 3.2 NNE 13 15 7 8 1018.4 1018.9 0.0
25/06:30pm 12.7 9.4 4.4 57 3.8 NNE 11 13 6 7 1018.4 1018.9 0.0
25/06:00pm 12.9 9.3 4.8 58 3.8 N 13 15 7 8 1018.3 1018.8 0.0
25/05:30pm 14.4 10.3 4.4 51 4.7 N 15 19 8 10 1018.4 1018.9 0.0
25/05:00pm 16.4 11.9 4.1 44 5.8 NNW 17 24 9 13 1018.4 1018.9 0.0
25/04:30pm 17.0 12.1 4.3 43 6.1 NNW 19 26 10 14 1018.7 1019.1 0.0
25/04:00pm 18.5 13.4 3.9 38 7.0 NNW 20 28 11 15 1018.7 1019.1 0.0
25/03:30pm 18.6 12.3 4.0 38 7.0 NNW 26 33 14 18 1019.0 1019.5 0.0
25/03:00pm 18.6 12.8 4.4 39 6.9 NNW 24 30 13 16 1019.1 1019.6 0.0
25/02:30pm 18.6 13.3 5.1 41 6.6 N 22 32 12 17 1019.4 1019.9 0.0
25/02:00pm 18.5 13.8 6.0 44 6.2 N 20 28 11 15 1019.9 1020.4 0.0
25/01:30pm 17.6 12.5 6.2 47 5.7 N 22 30 12 16 1020.4 1020.9 0.0
25/01:00pm 17.1 13.2 7.2 52 5.0 N 17 24 9 13 1020.9 1021.4 0.0
25/12:30pm 16.0 11.6 6.4 53 4.7 N 19 26 10 14 1021.6 1022.1 0.0
25/12:00pm 15.4 11.3 6.4 55 4.4 N 17 24 9 13 1022.3 1022.8 0.0
25/11:30am 14.1 10.2 6.9 62 3.6 N 17 20 9 11 1023.1 1023.6 0.0
25/11:00am 13.7 10.3 7.5 66 3.1 N 15 28 8 15 1023.5 1024.0 0.0
25/10:30am 12.4 8.8 6.7 68 2.8 N 15 22 8 12 1023.9 1024.4 0.0
25/10:00am 10.2 7.7 6.5 78 1.7 N 9 11 5 6 1024.1 1024.6 0.0
25/09:30am 8.3 6.6 5.9 85 1.1 NNE 4 7 2 4 1024.1 1024.6 0.0
25/09:00am 6.1 4.4 5.7 97 0.2 N 4 7 2 4 1024.4 1024.9 0.0
25/08:30am 3.8 2.4 3.7 99 0.0 CALM 0 0 0 0 1024.5 1025.0 0.0
25/08:00am 0.2 -1.8 0.1 99 0.0 CALM 0 0 0 0 1024.2 1024.7 0.0
25/07:30am -0.3 -2.3 -0.4 99 0.0 CALM 0 0 0 0 1023.8 1024.3 0.0
25/07:00am -0.2 -2.2 -0.3 99 0.0 CALM 0 0 0 0 1023.6 1024.1 0.0
25/06:30am 0.7 -1.2 0.6 99 0.0 CALM 0 0 0 0 1023.2 1023.7 0.0
25/06:00am 0.9 -1.0 0.8 99 0.0 CALM 0 0 0 0 1023.1 1023.6 0.0
25/05:30am 1.2 -0.6 1.1 99 0.0 CALM 0 0 0 0 1023.0 1023.5 0.0
25/05:00am 1.7 0.0 1.6 99 0.0 CALM 0 0 0 0 1022.8 1023.3 0.0
25/04:30am 1.5 -0.3 1.4 99 0.0 CALM 0 0 0 0 1022.8 1023.3 0.0
25/04:00am 1.5 -0.3 1.4 99 0.0 CALM 0 0 0 0 1022.8 1023.3 0.0
25/03:30am 0.7 -1.2 0.6 99 0.0 CALM 0 0 0 0 1022.9 1023.4 0.0
25/03:00am -0.2 -2.2 -0.3 99 0.0 CALM 0 0 0 0 1023.0 1023.5 0.0
25/02:30am -0.5 -2.6 -0.6 99 0.0 CALM 0 0 0 0 1023.1 1023.6 0.0
25/02:00am -0.5 -2.9 -0.6 99 0.0 S 2 6 1 3 1023.3 1023.8 0.0
25/01:30am -0.5 -3.3 -0.6 99 0.0 S 4 6 2 3 1023.1 1023.6 0.0
25/01:00am 0.3 -1.7 0.2 99 0.0 CALM 0 0 0 0 1023.1 1023.6 0.0
25/12:30am -0.5 -2.6 -0.6 99 0.0 CALM 0 0 0 0 1023.1 1023.6 0.0
25/12:00am 0.5 -1.4 0.4 99 0.0 CALM 0 0 0 0 1023.1 1023.6 0.0
 
Date/Time
EST
Temp
°C
App
Temp
°C
Dew
Point
°C
Rel
Hum
%
Delta-T
°C
Wind Press
QNH
hPa
Press
MSL
hPa
Rain since
9am
mm
Dir  Spd
km/h
Gust
km/h
Spd
kts
Gust
kts
24/11:30pm 0.1 -3.0 0.0 99 0.0 SW 6 9 3 5 1023.6 1024.1 0.0
24/11:00pm 1.2 -1.9 1.1 99 0.0 S 7 7 4 4 1023.6 1024.1 0.0
24/10:30pm 0.9 -2.3 0.8 99 0.0 S 7 9 4 5 1023.5 1024.0 0.0
24/10:00pm 1.4 -1.6 1.1 98 0.1 S 6 9 3 5 1023.4 1023.9 0.0
24/09:30pm 1.8 -1.3 1.5 98 0.1 S 7 9 4 5 1023.3 1023.8 0.0
24/09:00pm 2.8 0.5 2.5 98 0.1 S 4 9 2 5 1023.2 1023.7 0.0
24/08:30pm 3.0 0.2 2.3 95 0.3 SSW 6 7 3 4 1023.0 1023.5 0.0
24/08:00pm 4.0 2.5 3.1 94 0.4 CALM 0 0 0 0 1023.0 1023.5 0.0
24/07:30pm 4.8 3.4 3.5 91 0.5 CALM 0 0 0 0 1022.9 1023.4 0.0
24/07:00pm 5.4 3.8 2.6 82 1.2 CALM 0 0 0 0 1022.7 1023.2 0.0

Other Formats:

Comma delimited format used in spreadsheet applications
http://www.bom.gov.au/fwo/IDN60801/IDN60801.95722.axf

JavaScript Object Notation format (JSON) in row-major order
http://www.bom.gov.au/fwo/IDN60801/IDN60801.95722.json